Time;durP1;ratioP1;P1;durP2;ratioP2;P2;SDS_P1;SDS_P2;PMS_P1;PMS_P2;Temp;Humidity;BMP_temperature;BMP_pressure;BME280_temperature;BME280_humidity;BME280_pressure;Samples;Min_cycle;Max_cycle;Signal;HPM_P1;HPM_P2
2023/08/06 00:02:21;;;;;;;3.53;3.23;;;16.10;1.00;;;;;;5035560;28;20197;-67
2023/08/06 00:04:47;;;;;;;2.60;2.40;;;16.10;1.00;;;;;;5036075;28;20660;-68
2023/08/06 00:07:13;;;;;;;3.03;2.77;;;16.10;1.00;;;;;;5034389;28;20199;-74
2023/08/06 00:09:38;;;;;;;2.97;2.70;;;16.10;1.00;;;;;;5035594;28;20214;-73
2023/08/06 00:12:04;;;;;;;5.40;3.10;;;16.10;1.00;;;;;;5035637;28;20164;-67
2023/08/06 00:14:30;;;;;;;3.60;3.10;;;16.10;1.00;;;;;;5035567;28;20164;-69
2023/08/06 00:16:56;;;;;;;4.47;3.17;;;16.00;1.00;;;;;;5034499;28;20907;-73
2023/08/06 00:19:22;;;;;;;9.70;3.33;;;16.00;1.00;;;;;;5018396;28;20206;-73
2023/08/06 00:21:47;;;;;;;3.87;3.13;;;16.00;1.00;;;;;;5029163;28;20218;-67
2023/08/06 00:24:13;;;;;;;3.83;2.97;;;15.90;1.00;;;;;;5034355;28;20418;-66
2023/08/06 00:26:39;;;;;;;7.23;3.50;;;15.80;1.00;;;;;;5034706;28;20247;-66
2023/08/06 00:29:05;;;;;;;3.37;3.07;;;15.80;4.40;;;;;;5035329;28;20170;-73
2023/08/06 00:31:30;;;;;;;5.27;3.00;;;15.80;9.70;;;;;;5035361;28;20176;-67
2023/08/06 00:33:56;;;;;;;4.90;3.50;;;15.90;17.80;;;;;;5035595;28;20160;-73
2023/08/06 00:36:22;;;;;;;5.00;3.10;;;15.90;19.60;;;;;;5033619;28;20696;-67
2023/08/06 00:38:47;;;;;;;5.20;3.10;;;15.90;23.30;;;;;;5035413;28;20188;-73
2023/08/06 00:41:13;;;;;;;3.67;3.33;;;15.90;25.90;;;;;;5034956;28;20222;-66
2023/08/06 00:43:39;;;;;;;6.20;3.60;;;15.90;30.60;;;;;;5034313;28;20202;-73
2023/08/06 00:46:05;;;;;;;5.83;3.70;;;15.90;34.00;;;;;;5034361;28;20178;-66
2023/08/06 00:48:31;;;;;;;4.23;2.70;;;15.90;38.10;;;;;;5033604;28;20192;-68
2023/08/06 00:50:57;;;;;;;8.47;4.10;;;15.90;39.80;;;;;;5034932;28;20196;-74
2023/08/06 00:53:23;;;;;;;3.67;3.37;;;16.00;45.10;;;;;;5034648;28;20434;-71
2023/08/06 00:55:49;;;;;;;6.03;3.67;;;16.10;44.00;;;;;;5034268;28;20160;-73
2023/08/06 00:58:15;;;;;;;8.13;3.60;;;16.10;34.40;;;;;;5035014;28;20501;-66
2023/08/06 01:00:41;;;;;;;3.43;3.13;;;16.00;30.60;;;;;;5034588;28;20595;-72
2023/08/06 01:03:07;;;;;;;5.00;3.60;;;16.10;32.30;;;;;;5033951;28;20432;-68
2023/08/06 01:05:33;;;;;;;6.03;3.53;;;16.10;28.70;;;;;;5032822;28;20406;-73
2023/08/06 01:08:57;;;;;;;5.17;3.33;;;16.10;26.60;;;;;;5033764;28;20657;-68
2023/08/06 01:11:41;;;;;;;3.13;2.90;;;16.10;24.10;;;;;;5025209;28;20756;-73
2023/08/06 01:14:25;;;;;;;4.93;3.70;;;16.10;18.80;;;;;;5034649;28;20452;-67
2023/08/06 01:16:51;;;;;;;9.50;3.20;;;16.00;16.20;;;;;;5021990;28;20459;-72
2023/08/06 01:19:21;;;;;;;3.73;3.20;;;16.00;16.70;;;;;;5014800;28;20399;-67
2023/08/06 01:21:47;;;;;;;4.83;3.00;;;15.90;15.40;;;;;;5014271;28;20451;-70
2023/08/06 01:24:13;;;;;;;5.50;4.17;;;16.00;18.40;;;;;;5014894;28;20441;-71
2023/08/06 01:27:34;;;;;;;5.20;3.10;;;16.00;21.10;;;;;;5013624;28;20164;-71
2023/08/06 01:30:07;;;;;;;5.33;3.43;;;16.00;23.60;;;;;;5005193;28;20187;-67
2023/08/06 01:32:35;;;;;;;4.03;2.97;;;16.00;24.70;;;;;;5032537;28;20429;-73
2023/08/06 01:35:03;;;;;;;3.53;3.13;;;15.90;25.60;;;;;;5033757;28;20403;-73
2023/08/06 01:37:29;;;;;;;5.93;3.87;;;15.90;26.40;;;;;;5034151;28;20756;-68
2023/08/06 01:39:54;;;;;;;4.00;2.90;;;15.90;29.40;;;;;;5033768;28;20418;-73
2023/08/06 01:42:20;;;;;;;9.47;4.70;;;15.90;32.60;;;;;;5033993;28;20414;-67
2023/08/06 01:44:46;;;;;;;5.30;3.20;;;15.80;36.60;;;;;;5033559;28;20180;-68
2023/08/06 01:47:12;;;;;;;5.90;3.97;;;15.80;40.40;;;;;;5032999;28;20184;-67
2023/08/06 01:49:38;;;;;;;5.43;3.40;;;15.80;45.10;;;;;;5033955;28;20165;-73
2023/08/06 01:52:04;;;;;;;8.43;5.63;;;15.80;48.90;;;;;;5033674;28;20411;-67
2023/08/06 01:54:29;;;;;;;4.00;3.70;;;15.80;54.50;;;;;;5033545;28;20294;-73
2023/08/06 01:56:55;;;;;;;8.67;4.10;;;15.90;61.20;;;;;;5031453;28;20437;-66
2023/08/06 01:59:21;;;;;;;7.37;3.63;;;15.90;65.00;;;;;;5033081;28;20694;-73
2023/08/06 02:01:46;;;;;;;4.80;4.10;;;15.90;66.40;;;;;;5024017;28;20231;-70
2023/08/06 02:04:12;;;;;;;7.27;3.70;;;15.90;71.30;;;;;;5013966;28;20808;-67
2023/08/06 02:06:38;;;;;;;8.73;4.27;;;15.90;73.50;;;;;;5013156;28;20152;-70
2023/08/06 02:09:03;;;;;;;9.20;4.43;;;15.80;74.20;;;;;;5013528;28;20195;-70
2023/08/06 02:11:29;;;;;;;4.10;3.70;;;15.80;81.00;;;;;;5015032;28;20171;-67
2023/08/06 02:13:55;;;;;;;5.27;3.93;;;15.80;86.40;;;;;;5013546;28;20172;-72
2023/08/06 02:16:20;;;;;;;4.60;4.00;;;15.80;94.20;;;;;;5013037;28;20179;-72
2023/08/06 02:18:46;;;;;;;4.57;3.90;;;15.80;94.10;;;;;;5013800;28;20188;-70
2023/08/06 02:21:12;;;;;;;4.60;4.20;;;15.70;94.10;;;;;;5013817;28;20203;-70
2023/08/06 02:23:37;;;;;;;7.67;4.50;;;15.70;94.10;;;;;;5013694;28;20164;-67
2023/08/06 02:26:04;;;;;;;8.00;4.80;;;15.70;94.10;;;;;;5012328;28;20276;-72
2023/08/06 02:28:31;;;;;;;7.40;4.33;;;15.70;94.10;;;;;;5033462;28;20188;-71
2023/08/06 02:30:57;;;;;;;6.50;3.73;;;15.80;99.90;;;;;;5033657;28;20411;-67
2023/08/06 02:33:22;;;;;;;4.60;4.20;;;15.80;99.90;;;;;;5032809;28;21033;-67
2023/08/06 02:35:48;;;;;;;4.87;4.47;;;15.80;99.90;;;;;;5031566;28;20270;-67
2023/08/06 02:38:14;;;;;;;4.60;4.20;;;15.80;99.90;;;;;;5033479;28;20227;-66
2023/08/06 02:40:46;;;;;;;7.00;4.70;;;15.80;99.90;;;;;;5032350;28;20211;-66
2023/08/06 02:43:13;;;;;;;5.70;5.07;;;15.90;99.90;;;;;;5031971;28;20183;-72
2023/08/06 02:45:38;;;;;;;5.40;4.27;;;15.90;99.90;;;;;;5031932;28;20414;-73
2023/08/06 02:48:05;;;;;;;5.80;4.50;;;16.00;99.90;;;;;;5033193;28;20429;-73
2023/08/06 02:50:30;;;;;;;5.90;3.93;;;16.00;99.90;;;;;;5032998;28;20171;-72
2023/08/06 02:52:56;;;;;;;4.80;4.30;;;16.00;99.90;;;;;;5033163;28;20752;-67
2023/08/06 02:55:22;;;;;;;4.40;4.00;;;15.90;99.90;;;;;;5031425;28;20191;-67
2023/08/06 02:57:47;;;;;;;6.77;4.00;;;15.90;99.90;;;;;;5033060;28;20202;-73
2023/08/06 03:00:13;;;;;;;6.93;3.90;;;15.90;99.90;;;;;;5033133;28;20191;-67
2023/08/06 03:02:39;;;;;;;4.87;4.47;;;15.90;99.90;;;;;;5032688;28;20168;-67
2023/08/06 03:05:06;;;;;;;6.70;3.87;;;15.90;99.90;;;;;;5032158;28;20254;-67
2023/08/06 03:07:33;;;;;;;6.13;4.53;;;16.00;99.90;;;;;;5032262;28;20195;-69
2023/08/06 03:10:01;;;;;;;14.13;4.13;;;16.00;99.90;;;;;;5031908;28;20406;-72
2023/08/06 03:12:27;;;;;;;6.70;4.00;;;16.00;99.90;;;;;;5033066;28;20767;-73
2023/08/06 03:14:53;;;;;;;7.10;3.93;;;16.00;99.90;;;;;;5032927;28;20402;-67
2023/08/06 03:17:18;;;;;;;5.10;4.17;;;16.00;99.90;;;;;;5032208;28;20199;-72
2023/08/06 03:19:44;;;;;;;7.07;4.63;;;15.90;99.90;;;;;;5032413;28;20182;-67
2023/08/06 03:22:10;;;;;;;6.43;4.40;;;15.90;99.90;;;;;;5031903;28;20276;-67
2023/08/06 03:24:35;;;;;;;6.33;4.20;;;15.80;99.90;;;;;;5036899;28;20218;-71
2023/08/06 03:27:01;;;;;;;4.43;3.90;;;15.80;99.90;;;;;;5035914;28;20184;-68
2023/08/06 03:29:27;;;;;;;5.77;4.33;;;15.70;99.90;;;;;;5036470;28;20254;-69
2023/08/06 03:31:53;;;;;;;4.10;3.80;;;15.80;99.90;;;;;;5036462;28;20175;-67
2023/08/06 03:34:18;;;;;;;7.27;4.30;;;15.70;99.90;;;;;;5036568;28;20406;-66
2023/08/06 03:36:44;;;;;;;5.83;4.40;;;15.60;99.90;;;;;;5034956;28;20218;-72
2023/08/06 03:39:10;;;;;;;4.50;4.10;;;15.60;99.90;;;;;;5035999;28;20258;-73
2023/08/06 03:41:36;;;;;;;5.47;4.90;;;15.60;99.90;;;;;;5036490;28;20206;-73
2023/08/06 03:44:03;;;;;;;6.07;4.70;;;15.50;99.90;;;;;;5036311;28;20175;-71
2023/08/06 03:46:29;;;;;;;5.33;4.80;;;15.40;99.90;;;;;;5034749;28;20168;-73
2023/08/06 03:48:56;;;;;;;5.17;4.77;;;15.40;99.90;;;;;;5036033;28;20918;-66
2023/08/06 03:51:22;;;;;;;6.50;5.17;;;15.40;99.90;;;;;;5019513;28;20927;-66
2023/08/06 03:53:48;;;;;;;6.17;5.50;;;15.30;99.90;;;;;;5016577;28;20522;-67
2023/08/06 03:56:13;;;;;;;5.70;5.17;;;15.30;99.90;;;;;;5014430;28;20175;-70
2023/08/06 03:58:39;;;;;;;11.20;4.67;;;15.30;99.90;;;;;;5016022;28;20715;-66
2023/08/06 04:01:05;;;;;;;12.73;5.67;;;15.30;99.90;;;;;;5016341;28;20285;-66
2023/08/06 04:03:30;;;;;;;7.83;5.00;;;15.30;99.90;;;;;;5014681;28;20187;-69
2023/08/06 04:05:56;;;;;;;6.60;5.20;;;15.30;99.90;;;;;;5031025;28;20267;-67
2023/08/06 04:08:22;;;;;;;5.20;4.60;;;15.30;99.90;;;;;;5034058;28;20656;-72
2023/08/06 04:10:53;;;;;;;6.90;4.87;;;15.30;99.90;;;;;;5018068;28;20184;-68
2023/08/06 04:13:20;;;;;;;5.97;5.40;;;15.30;99.90;;;;;;5016094;28;20180;-67
2023/08/06 04:15:47;;;;;;;5.30;4.40;;;15.40;99.90;;;;;;5015054;28;20407;-67
2023/08/06 04:18:12;;;;;;;12.00;4.83;;;15.40;99.90;;;;;;5015715;28;21402;-73
2023/08/06 04:20:49;;;;;;;9.33;4.70;;;15.50;99.90;;;;;;5035313;28;20537;-68
2023/08/06 04:23:15;;;;;;;9.07;5.40;;;15.50;99.90;;;;;;5035899;28;20167;-72
2023/08/06 04:25:40;;;;;;;4.80;4.30;;;15.50;99.90;;;;;;5034831;28;20406;-72
2023/08/06 04:28:07;;;;;;;6.47;4.50;;;15.60;99.90;;;;;;5035413;28;20302;-73
2023/08/06 04:30:33;;;;;;;7.60;4.70;;;15.60;99.90;;;;;;5035536;28;20207;-72
2023/08/06 04:32:58;;;;;;;8.20;4.97;;;15.60;99.90;;;;;;5026182;28;20853;-68
2023/08/06 04:35:24;;;;;;;5.33;4.60;;;15.60;99.90;;;;;;5014888;28;20200;-67
2023/08/06 04:37:50;;;;;;;6.10;4.63;;;15.60;99.90;;;;;;5014257;28;20200;-66
2023/08/06 04:40:16;;;;;;;4.53;3.70;;;15.50;99.90;;;;;;5015182;28;20204;-72
2023/08/06 04:42:41;;;;;;;5.23;4.40;;;15.60;99.90;;;;;;5014262;28;20172;-71
2023/08/06 04:45:07;;;;;;;6.07;4.40;;;15.70;99.90;;;;;;5015222;28;20169;-72
2023/08/06 04:47:33;;;;;;;4.47;4.17;;;15.70;99.90;;;;;;5015507;28;20184;-67
2023/08/06 04:49:59;;;;;;;9.23;4.93;;;15.70;99.90;;;;;;5015323;28;20760;-67
2023/08/06 04:52:27;;;;;;;5.97;4.90;;;15.70;99.90;;;;;;5014943;28;20180;-67
2023/08/06 04:54:54;;;;;;;5.80;4.90;;;15.70;99.90;;;;;;5015141;28;20263;-71
2023/08/06 04:57:19;;;;;;;8.03;4.80;;;15.80;99.90;;;;;;5014275;28;20439;-67
2023/08/06 04:59:45;;;;;;;9.80;3.67;;;15.90;99.90;;;;;;5014768;28;20426;-74
2023/08/06 05:02:11;;;;;;;6.77;5.30;;;16.00;99.90;;;;;;5046660;28;20207;-67
2023/08/06 05:04:37;;;;;;;7.97;4.57;;;16.00;99.90;;;;;;5014972;28;20403;-72
2023/08/06 05:07:03;;;;;;;4.23;3.87;;;16.00;99.90;;;;;;5014354;28;20242;-72
2023/08/06 05:09:29;;;;;;;10.80;5.30;;;16.00;99.90;;;;;;5014857;28;20164;-67
2023/08/06 05:11:54;;;;;;;6.87;4.30;;;15.90;99.90;;;;;;5014870;28;20880;-66
2023/08/06 05:14:20;;;;;;;5.00;4.20;;;16.00;99.90;;;;;;5014519;28;20180;-67
2023/08/06 05:16:46;;;;;;;4.20;3.70;;;16.00;99.90;;;;;;5013472;28;20180;-72
2023/08/06 05:19:12;;;;;;;9.60;4.20;;;16.00;99.90;;;;;;5014926;28;20176;-67
2023/08/06 05:21:37;;;;;;;7.73;4.03;;;16.10;99.90;;;;;;5015101;28;20204;-73
2023/08/06 05:24:03;;;;;;;5.63;4.17;;;16.00;99.90;;;;;;5013578;28;20595;-72
2023/08/06 05:26:29;;;;;;;6.80;4.00;;;15.90;99.90;;;;;;5012809;28;20180;-69
2023/08/06 05:28:54;;;;;;;4.43;4.03;;;16.00;99.90;;;;;;5014258;28;20431;-66
2023/08/06 05:31:20;;;;;;;6.23;4.33;;;15.90;99.90;;;;;;5014596;28;20279;-67
2023/08/06 05:33:46;;;;;;;6.97;4.03;;;15.90;99.90;;;;;;5014445;28;20220;-69
2023/08/06 05:36:11;;;;;;;5.30;4.30;;;15.90;99.90;;;;;;5013627;28;20183;-72
2023/08/06 05:38:37;;;;;;;5.53;4.20;;;15.90;99.90;;;;;;5023331;28;20199;-72
2023/08/06 05:41:03;;;;;;;9.70;4.10;;;16.00;99.90;;;;;;5034084;28;20209;-72
2023/08/06 05:43:29;;;;;;;4.83;4.33;;;16.10;99.90;;;;;;5033607;28;20259;-70
2023/08/06 05:45:56;;;;;;;3.57;3.27;;;16.20;99.90;;;;;;5032789;28;20560;-63
2023/08/06 05:48:24;;;;;;;4.93;3.83;;;16.10;99.90;;;;;;5033647;28;20230;-69
2023/08/06 05:50:50;;;;;;;13.73;3.93;;;16.30;99.90;;;;;;5034017;28;20413;-69
2023/08/06 05:53:16;;;;;;;5.50;4.20;;;16.30;99.90;;;;;;5033377;28;20406;-67
2023/08/06 05:55:41;;;;;;;7.73;3.70;;;16.30;99.90;;;;;;5031798;28;20790;-65
2023/08/06 05:58:07;;;;;;;4.20;3.37;;;16.30;99.90;;;;;;5033845;28;20253;-69
2023/08/06 06:00:33;;;;;;;5.90;3.53;;;16.30;99.90;;;;;;5028730;28;20208;-68
2023/08/06 06:02:58;;;;;;;6.17;3.73;;;16.40;99.90;;;;;;5014028;28;20633;-68
2023/08/06 06:05:24;;;;;;;7.00;3.43;;;16.40;99.90;;;;;;5029199;28;20201;-67
2023/08/06 06:07:50;;;;;;;4.57;3.33;;;16.50;99.90;;;;;;5032101;28;20198;-69
2023/08/06 06:10:16;;;;;;;13.63;3.97;;;16.50;99.90;;;;;;5033757;28;20180;-67
2023/08/06 06:12:41;;;;;;;7.37;3.77;;;16.60;99.90;;;;;;5032444;28;20250;-66
2023/08/06 06:15:07;;;;;;;4.57;3.50;;;16.60;99.90;;;;;;5031409;28;20536;-67
2023/08/06 06:17:33;;;;;;;6.00;3.60;;;16.60;99.90;;;;;;5033916;28;20200;-70
2023/08/06 06:19:59;;;;;;;6.80;3.50;;;16.50;99.90;;;;;;5028905;28;20489;-67
2023/08/06 06:22:24;;;;;;;3.97;3.43;;;16.50;99.90;;;;;;5032087;28;20175;-68
2023/08/06 06:24:50;;;;;;;9.93;3.73;;;16.60;99.90;;;;;;5033265;28;20176;-71
2023/08/06 06:27:16;;;;;;;4.83;3.53;;;16.70;99.90;;;;;;5032262;28;20206;-67
2023/08/06 06:29:41;;;;;;;4.70;3.17;;;16.70;99.90;;;;;;5033733;28;20636;-68
2023/08/06 06:32:07;;;;;;;3.97;3.67;;;16.70;99.90;;;;;;5033373;28;20179;-67
2023/08/06 06:34:33;;;;;;;3.23;2.57;;;16.70;99.90;;;;;;5032415;28;20249;-71
2023/08/06 06:36:58;;;;;;;5.53;3.87;;;16.70;99.90;;;;;;5026391;28;20204;-70
2023/08/06 06:39:24;;;;;;;6.50;3.40;;;16.80;99.90;;;;;;5032086;28;20210;-71
2023/08/06 06:41:50;;;;;;;4.30;3.73;;;16.90;99.90;;;;;;5031654;28;20560;-67
2023/08/06 06:44:15;;;;;;;8.13;3.43;;;16.80;99.90;;;;;;5033456;28;20644;-68
2023/08/06 06:46:41;;;;;;;4.10;2.60;;;16.80;99.90;;;;;;5032350;28;20164;-70
2023/08/06 06:49:07;;;;;;;3.30;3.00;;;16.80;99.90;;;;;;5033051;28;20194;-69
2023/08/06 06:51:32;;;;;;;7.53;3.50;;;16.70;99.90;;;;;;5032321;28;20556;-71
2023/08/06 06:53:58;;;;;;;9.57;4.90;;;16.80;99.90;;;;;;5033154;28;20187;-72
2023/08/06 06:56:24;;;;;;;7.20;3.90;;;16.80;99.90;;;;;;5032768;28;20173;-67
2023/08/06 06:58:50;;;;;;;6.90;3.63;;;16.70;99.90;;;;;;5034059;28;20604;-71
2023/08/06 07:01:15;;;;;;;3.50;3.20;;;16.70;99.90;;;;;;5033363;28;20294;-72
2023/08/06 07:03:41;;;;;;;10.30;2.57;;;16.90;99.90;;;;;;5037273;28;20175;-67
2023/08/06 07:06:07;;;;;;;6.43;3.00;;;16.90;99.90;;;;;;5036054;28;20190;-71
2023/08/06 07:08:33;;;;;;;4.70;3.40;;;17.00;99.90;;;;;;5037028;28;20525;-66
2023/08/06 07:11:03;;;;;;;9.33;2.63;;;17.10;99.90;;;;;;5037273;28;20214;-66
2023/08/06 07:13:29;;;;;;;4.93;3.53;;;17.20;99.90;;;;;;5035624;28;20986;-68
2023/08/06 07:15:55;;;;;;;2.70;2.50;;;17.30;99.90;;;;;;5036130;28;20407;-71
2023/08/06 07:18:21;;;;;;;3.30;2.83;;;17.40;99.90;;;;;;5035149;28;20438;-67
2023/08/06 07:20:51;;;;;;;3.67;2.20;;;17.40;99.90;;;;;;5036779;28;20453;-70
2023/08/06 07:23:18;;;;;;;5.63;3.27;;;17.40;99.90;;;;;;5036937;28;20413;-68
2023/08/06 07:25:44;;;;;;;4.10;3.37;;;17.40;99.90;;;;;;5035508;28;20403;-67
2023/08/06 07:28:10;;;;;;;3.33;2.87;;;17.40;99.90;;;;;;5035356;28;20480;-69
2023/08/06 07:30:39;;;;;;;3.33;2.80;;;17.40;99.90;;;;;;5036831;28;20225;-71
2023/08/06 07:33:05;;;;;;;3.27;2.70;;;17.50;99.90;;;;;;5029907;28;20476;-67
2023/08/06 07:35:30;;;;;;;5.60;2.60;;;17.40;99.90;;;;;;5035293;28;20899;-71
2023/08/06 07:37:56;;;;;;;5.53;3.30;;;17.50;99.90;;;;;;5035094;28;20294;-70
2023/08/06 07:40:22;;;;;;;5.10;2.60;;;17.50;99.90;;;;;;5036616;28;20684;-67
2023/08/06 07:42:47;;;;;;;4.00;2.60;;;17.70;99.90;;;;;;5036332;28;20170;-71
2023/08/06 07:45:14;;;;;;;2.70;2.50;;;17.60;99.90;;;;;;5028789;28;20540;-66
2023/08/06 07:47:40;;;;;;;3.80;2.80;;;17.50;99.90;;;;;;5016573;28;20272;-70
2023/08/06 07:50:06;;;;;;;2.90;2.53;;;17.50;99.90;;;;;;5016574;28;20502;-68
2023/08/06 07:52:32;;;;;;;5.60;3.20;;;17.50;99.90;;;;;;5016257;28;20411;-71
2023/08/06 07:54:58;;;;;;;4.53;2.70;;;17.50;99.90;;;;;;5018600;28;20418;-68
2023/08/06 07:57:24;;;;;;;5.90;3.10;;;17.50;99.90;;;;;;5015828;28;20180;-71
2023/08/06 07:59:50;;;;;;;7.60;2.30;;;17.50;99.90;;;;;;5015873;28;20438;-72
2023/08/06 08:02:16;;;;;;;4.93;2.97;;;17.40;99.90;;;;;;5014800;28;20231;-70
2023/08/06 08:04:41;;;;;;;3.23;2.83;;;17.40;99.90;;;;;;5028206;28;20475;-69
2023/08/06 08:07:09;;;;;;;2.83;2.63;;;17.40;99.90;;;;;;5034978;28;20433;-71
2023/08/06 08:09:35;;;;;;;2.53;2.33;;;17.40;99.80;;;;;;5034878;28;20171;-70
2023/08/06 08:12:02;;;;;;;3.63;2.40;;;17.50;99.10;;;;;;5035947;28;20406;-70
2023/08/06 08:14:28;;;;;;;5.43;2.60;;;17.40;94.70;;;;;;5035202;28;20441;-71
2023/08/06 08:16:54;;;;;;;4.40;2.00;;;17.30;94.70;;;;;;5035516;28;20418;-71
2023/08/06 08:19:21;;;;;;;7.60;2.27;;;17.30;94.70;;;;;;5034548;28;20465;-71
2023/08/06 08:21:46;;;;;;;3.70;2.43;;;17.30;94.70;;;;;;5035793;28;20946;-69
2023/08/06 08:24:12;;;;;;;3.67;2.37;;;17.40;94.70;;;;;;5034376;28;20419;-67
2023/08/06 08:26:38;;;;;;;3.40;2.60;;;17.60;94.80;;;;;;5034770;28;20617;-71
2023/08/06 08:29:04;;;;;;;7.77;2.50;;;17.70;94.80;;;;;;5033397;28;20648;-67
2023/08/06 08:31:29;;;;;;;3.27;2.27;;;17.70;94.90;;;;;;5035665;28;20225;-66
2023/08/06 08:33:55;;;;;;;2.47;2.30;;;17.70;93.60;;;;;;5035420;28;20172;-67
2023/08/06 08:36:21;;;;;;;5.53;2.40;;;17.90;95.00;;;;;;5034634;28;20175;-67
2023/08/06 08:38:47;;;;;;;2.13;1.93;;;18.00;91.30;;;;;;5034851;28;20187;-68
2023/08/06 08:41:13;;;;;;;1.90;1.80;;;18.20;94.90;;;;;;5035347;28;20484;-66
2023/08/06 08:43:40;;;;;;;2.73;2.30;;;18.40;90.70;;;;;;5034134;28;20648;-68
2023/08/06 08:46:08;;;;;;;3.30;2.07;;;18.40;51.70;;;;;;5034500;28;20163;-71
2023/08/06 08:48:34;;;;;;;2.50;2.30;;;18.50;53.40;;;;;;5035042;28;20415;-67
2023/08/06 08:51:00;;;;;;;3.17;2.93;;;18.50;40.20;;;;;;5035160;28;20440;-70
2023/08/06 08:53:27;;;;;;;4.00;2.17;;;18.50;18.30;;;;;;5035220;28;20176;-71
2023/08/06 08:55:54;;;;;;;3.73;2.30;;;18.40;6.20;;;;;;5033163;28;20437;-73
2023/08/06 08:58:20;;;;;;;2.80;2.17;;;18.50;8.30;;;;;;5034896;28;20422;-68
2023/08/06 09:00:48;;;;;;;3.93;2.43;;;18.60;15.00;;;;;;5033704;28;20604;-71
2023/08/06 09:03:16;;;;;;;3.77;2.10;;;18.50;1.00;;;;;;5034794;28;20214;-72
2023/08/06 09:05:45;;;;;;;2.20;2.00;;;18.50;1.00;;;;;;5032954;28;20419;-68
2023/08/06 09:08:13;;;;;;;4.57;2.23;;;18.60;1.00;;;;;;5034960;28;20472;-68
2023/08/06 09:10:41;;;;;;;4.67;2.10;;;18.60;1.00;;;;;;5032476;28;20434;-71
2023/08/06 09:13:07;;;;;;;4.70;2.20;;;18.50;1.00;;;;;;5034466;28;20417;-70
2023/08/06 09:15:33;;;;;;;5.43;2.30;;;18.60;1.00;;;;;;5032870;28;20434;-71
2023/08/06 09:17:59;;;;;;;13.13;2.90;;;18.50;1.00;;;;;;5034831;28;20422;-71
2023/08/06 09:20:24;;;;;;;10.07;2.43;;;18.40;1.00;;;;;;5033448;28;20934;-68
2023/08/06 09:22:53;;;;;;;3.20;2.17;;;18.50;1.00;;;;;;5033336;28;20624;-72
2023/08/06 09:25:26;;;;;;;3.97;1.90;;;18.60;1.00;;;;;;5033612;28;20706;-66
2023/08/06 09:27:52;;;;;;;3.57;2.93;;;18.80;1.00;;;;;;5034610;28;20445;-72
2023/08/06 09:30:35;;;;;;;2.37;2.17;;;18.90;1.00;;;;;;5034157;28;20410;-68
2023/08/06 09:33:01;;;;;;;3.00;1.70;;;19.10;1.00;;;;;;5034104;28;20171;-71
2023/08/06 09:35:31;;;;;;;3.70;1.97;;;19.10;1.00;;;;;;5032214;28;20449;-67
2023/08/06 09:38:10;;;;;;;2.50;1.90;;;19.10;1.00;;;;;;5032562;28;20460;-65
2023/08/06 09:40:37;;;;;;;2.40;1.53;;;19.10;1.00;;;;;;5033622;28;20481;-70
2023/08/06 09:43:03;;;;;;;3.70;2.17;;;19.00;1.00;;;;;;5034566;28;20406;-69
2023/08/06 09:45:35;;;;;;;2.73;2.53;;;19.00;1.00;;;;;;5033531;28;20737;-65
2023/08/06 09:48:06;;;;;;;3.33;2.20;;;19.00;1.00;;;;;;5034177;28;20840;-67
2023/08/06 09:50:35;;;;;;;2.40;2.03;;;19.00;1.00;;;;;;5032850;28;20402;-67
2023/08/06 09:53:03;;;;;;;3.17;2.60;;;19.00;1.00;;;;;;5016357;28;20406;-67
2023/08/06 09:55:28;;;;;;;2.30;2.10;;;19.00;1.00;;;;;;5013227;28;20437;-65
2023/08/06 09:57:55;;;;;;;2.33;2.13;;;19.10;1.00;;;;;;5013862;28;20411;-66
2023/08/06 10:00:22;;;;;;;2.50;2.30;;;19.10;1.00;;;;;;5014395;28;20199;-65
2023/08/06 10:02:51;;;;;;;2.20;1.83;;;19.10;1.00;;;;;;5014110;28;20504;-64
2023/08/06 10:05:18;;;;;;;4.43;2.17;;;19.10;1.00;;;;;;5013354;28;20470;-67
2023/08/06 10:07:44;;;;;;;2.53;2.33;;;19.00;1.00;;;;;;5013625;28;20493;-68
2023/08/06 10:10:10;;;;;;;2.90;2.27;;;18.90;1.00;;;;;;5026844;28;20432;-73
2023/08/06 10:12:40;;;;;;;4.43;2.33;;;18.80;1.00;;;;;;5033737;28;20402;-70
2023/08/06 10:15:10;;;;;;;4.47;2.40;;;18.80;1.00;;;;;;5032150;28;20222;-67
2023/08/06 10:17:37;;;;;;;6.97;2.90;;;18.90;1.00;;;;;;5033666;28;20444;-72
2023/08/06 10:20:06;;;;;;;2.43;1.80;;;18.80;1.00;;;;;;5033489;28;20748;-67
2023/08/06 10:22:33;;;;;;;2.40;2.20;;;18.80;1.00;;;;;;5033746;28;20429;-72
2023/08/06 10:25:04;;;;;;;3.10;2.80;;;18.80;1.00;;;;;;5031671;28;20418;-67
2023/08/06 10:27:38;;;;;;;2.73;2.53;;;19.00;1.00;;;;;;5033506;28;20426;-73
2023/08/06 10:30:30;;;;;;;3.47;2.50;;;19.00;1.00;;;;;;5033495;28;20396;-67
2023/08/06 10:33:02;;;;;;;4.77;2.13;;;19.10;1.00;;;;;;5032740;28;20402;-71
2023/08/06 10:35:44;;;;;;;2.57;2.33;;;19.20;1.00;;;;;;5032700;28;20394;-73
2023/08/06 10:38:15;;;;;;;2.40;2.20;;;19.20;1.00;;;;;;5032592;28;20442;-67
2023/08/06 10:40:53;;;;;;;2.50;2.30;;;19.20;1.00;;;;;;5031882;28;20977;-68
2023/08/06 10:43:43;;;;;;;3.20;2.47;;;19.10;1.00;;;;;;5032138;28;20430;-67
2023/08/06 10:46:22;;;;;;;4.13;2.90;;;19.10;1.00;;;;;;5032346;28;20464;-72
2023/08/06 10:48:47;;;;;;;2.63;2.27;;;19.10;1.00;;;;;;5033166;28;20778;-71
2023/08/06 10:51:17;;;;;;;4.43;2.40;;;19.20;1.00;;;;;;5027571;28;20427;-68
2023/08/06 10:53:47;;;;;;;2.70;2.30;;;19.30;1.00;;;;;;5013442;28;20176;-69
2023/08/06 10:56:25;;;;;;;4.77;3.10;;;19.10;1.00;;;;;;5012733;28;20403;-71
2023/08/06 10:58:51;;;;;;;2.80;2.60;;;19.10;1.00;;;;;;5013345;28;20426;-67
2023/08/06 11:01:17;;;;;;;2.77;2.37;;;19.30;1.00;;;;;;5013338;28;20458;-68
2023/08/06 11:03:46;;;;;;;2.87;2.67;;;19.40;1.00;;;;;;5012968;28;20403;-70
2023/08/06 11:06:18;;;;;;;3.73;2.27;;;19.60;1.00;;;;;;5018549;28;20426;-71
2023/08/06 11:08:51;;;;;;;2.53;2.07;;;19.60;1.00;;;;;;5032855;28;20422;-71
2023/08/06 11:11:17;;;;;;;2.60;2.30;;;19.70;1.00;;;;;;5033197;28;20438;-70
2023/08/06 11:13:46;;;;;;;2.50;2.30;;;19.70;1.00;;;;;;5032886;28;20441;-70
2023/08/06 11:16:17;;;;;;;4.03;2.53;;;19.70;1.00;;;;;;5029850;28;20434;-72
2023/08/06 11:18:43;;;;;;;4.93;1.73;;;19.80;1.00;;;;;;5032834;28;20477;-67
2023/08/06 11:21:09;;;;;;;2.40;2.20;;;20.20;1.00;;;;;;5032948;28;20468;-71
2023/08/06 11:23:35;;;;;;;5.63;1.80;;;20.60;1.00;;;;;;5019037;28;20529;-68
2023/08/06 11:26:02;;;;;;;3.00;2.17;;;20.90;1.00;;;;;;5012091;28;20165;-68
2023/08/06 11:28:27;;;;;;;2.63;1.93;;;21.10;1.00;;;;;;5013198;28;20503;-72
2023/08/06 11:30:55;;;;;;;2.37;2.00;;;21.30;1.00;;;;;;5015872;28;20430;-70
2023/08/06 11:33:27;;;;;;;3.80;2.33;;;21.40;1.00;;;;;;5032727;28;20206;-73
2023/08/06 11:35:55;;;;;;;2.70;2.50;;;21.40;1.00;;;;;;5031874;28;20402;-72
2023/08/06 11:38:21;;;;;;;2.90;2.70;;;21.50;1.00;;;;;;5031729;28;20453;-68
2023/08/06 11:40:50;;;;;;;3.50;1.87;;;21.40;1.00;;;;;;5031969;28;20465;-69
2023/08/06 11:43:24;;;;;;;2.90;2.20;;;21.20;1.00;;;;;;5033121;28;20652;-71
2023/08/06 11:45:52;;;;;;;5.00;2.23;;;21.20;1.00;;;;;;5035410;28;20390;-67
2023/08/06 11:48:18;;;;;;;2.33;2.13;;;21.10;1.00;;;;;;5029354;28;20501;-72
2023/08/06 11:50:44;;;;;;;3.20;2.10;;;21.10;1.00;;;;;;5023588;28;20441;-68
2023/08/06 11:53:13;;;;;;;2.00;1.80;;;20.90;1.00;;;;;;5036400;28;20412;-73
2023/08/06 11:55:40;;;;;;;2.70;2.17;;;20.70;1.00;;;;;;5035071;28;20234;-73
2023/08/06 11:58:05;;;;;;;2.27;2.10;;;20.60;1.00;;;;;;5035644;28;20432;-74
2023/08/06 12:00:31;;;;;;;2.67;2.30;;;20.70;1.00;;;;;;5035972;28;20457;-72
2023/08/06 12:02:57;;;;;;;6.07;3.00;;;20.40;1.00;;;;;;5036132;28;20502;-68
2023/08/06 12:05:24;;;;;;;2.00;1.90;;;20.20;1.00;;;;;;5034593;28;20263;-69
2023/08/06 12:07:57;;;;;;;3.57;2.43;;;20.20;1.00;;;;;;5035995;28;20191;-73
2023/08/06 12:10:25;;;;;;;5.10;2.47;;;20.20;1.00;;;;;;5036077;28;20402;-69
2023/08/06 12:12:51;;;;;;;2.50;2.30;;;20.30;1.00;;;;;;5035194;28;20869;-72
2023/08/06 12:15:17;;;;;;;2.40;2.20;;;20.30;1.00;;;;;;5034231;28;20485;-69
2023/08/06 12:17:43;;;;;;;3.13;2.27;;;20.70;1.00;;;;;;5035158;28;20544;-68
2023/08/06 12:20:10;;;;;;;4.03;2.17;;;21.00;1.00;;;;;;5034872;28;20545;-67
2023/08/06 12:22:38;;;;;;;3.30;1.97;;;21.10;1.00;;;;;;5035514;28;20413;-72
2023/08/06 12:25:07;;;;;;;2.10;1.90;;;20.90;1.00;;;;;;5034954;28;20937;-72
2023/08/06 12:27:37;;;;;;;2.00;1.77;;;20.90;1.00;;;;;;5034420;28;20438;-67
2023/08/06 12:30:04;;;;;;;2.10;1.90;;;21.00;1.00;;;;;;5035515;28;20402;-71
2023/08/06 12:32:29;;;;;;;4.23;2.67;;;21.20;1.00;;;;;;5033937;28;20405;-72
2023/08/06 12:34:55;;;;;;;8.13;1.90;;;21.20;1.00;;;;;;5014550;28;20423;-74
2023/08/06 12:37:21;;;;;;;2.70;2.40;;;21.00;1.00;;;;;;5015151;28;20197;-67
2023/08/06 12:39:47;;;;;;;3.30;2.90;;;20.90;1.00;;;;;;5015560;28;20513;-68
2023/08/06 12:42:13;;;;;;;3.23;1.90;;;21.00;1.00;;;;;;5015487;28;20204;-71
2023/08/06 12:44:39;;;;;;;4.70;2.20;;;21.10;1.00;;;;;;5030994;28;20585;-72
2023/08/06 12:47:04;;;;;;;2.77;2.10;;;21.50;1.00;;;;;;5014288;28;20206;-68
2023/08/06 12:49:31;;;;;;;2.60;2.20;;;21.80;1.00;;;;;;5015454;28;20168;-72
2023/08/06 12:51:59;;;;;;;3.53;2.40;;;21.60;1.00;;;;;;5014696;28;20180;-72